sensor_id;sensor_type;location;lat;lon;timestamp;temperature;humidity
2435;DHT22;1228;51.022;6.764;2023-05-10T00:00:40;13.50;99.90
2435;DHT22;1228;51.022;6.764;2023-05-10T00:03:06;13.40;99.90
2435;DHT22;1228;51.022;6.764;2023-05-10T00:05:32;13.50;99.90
2435;DHT22;1228;51.022;6.764;2023-05-10T00:07:58;13.50;99.90
2435;DHT22;1228;51.022;6.764;2023-05-10T00:10:23;13.40;99.90
2435;DHT22;1228;51.022;6.764;2023-05-10T00:12:49;13.40;99.90
2435;DHT22;1228;51.022;6.764;2023-05-10T00:15:14;13.40;99.90
2435;DHT22;1228;51.022;6.764;2023-05-10T00:17:40;13.40;99.90
2435;DHT22;1228;51.022;6.764;2023-05-10T00:20:06;13.50;99.90
2435;DHT22;1228;51.022;6.764;2023-05-10T00:22:32;13.50;99.90
2435;DHT22;1228;51.022;6.764;2023-05-10T00:24:58;13.50;99.90
2435;DHT22;1228;51.022;6.764;2023-05-10T00:27:24;13.50;99.90
2435;DHT22;1228;51.022;6.764;2023-05-10T00:29:49;13.50;99.90
2435;DHT22;1228;51.022;6.764;2023-05-10T00:32:15;13.60;99.90
2435;DHT22;1228;51.022;6.764;2023-05-10T00:34:41;13.60;99.90
2435;DHT22;1228;51.022;6.764;2023-05-10T00:37:06;13.50;99.90
2435;DHT22;1228;51.022;6.764;2023-05-10T00:39:32;13.50;99.90
2435;DHT22;1228;51.022;6.764;2023-05-10T00:41:58;13.60;99.90
2435;DHT22;1228;51.022;6.764;2023-05-10T00:44:23;13.50;99.90
2435;DHT22;1228;51.022;6.764;2023-05-10T00:46:49;13.60;99.90
2435;DHT22;1228;51.022;6.764;2023-05-10T00:49:15;13.60;99.90
2435;DHT22;1228;51.022;6.764;2023-05-10T00:51:41;13.50;99.90
2435;DHT22;1228;51.022;6.764;2023-05-10T00:54:09;13.50;99.90
2435;DHT22;1228;51.022;6.764;2023-05-10T00:56:36;13.60;99.90
2435;DHT22;1228;51.022;6.764;2023-05-10T00:59:02;13.50;99.90
2435;DHT22;1228;51.022;6.764;2023-05-10T01:01:28;13.50;99.90
2435;DHT22;1228;51.022;6.764;2023-05-10T01:03:55;13.50;99.90
2435;DHT22;1228;51.022;6.764;2023-05-10T01:06:21;13.40;99.90
2435;DHT22;1228;51.022;6.764;2023-05-10T01:08:47;13.40;99.90
2435;DHT22;1228;51.022;6.764;2023-05-10T01:11:13;13.40;99.90
2435;DHT22;1228;51.022;6.764;2023-05-10T01:13:40;13.50;99.90
2435;DHT22;1228;51.022;6.764;2023-05-10T01:16:06;13.60;99.90
2435;DHT22;1228;51.022;6.764;2023-05-10T01:18:38;13.60;99.90
2435;DHT22;1228;51.022;6.764;2023-05-10T01:21:15;13.60;99.90
2435;DHT22;1228;51.022;6.764;2023-05-10T01:32:48;13.30;99.90
2435;DHT22;1228;51.022;6.764;2023-05-10T01:35:26;13.30;99.90
2435;DHT22;1228;51.022;6.764;2023-05-10T01:43:22;13.30;99.90
2435;DHT22;1228;51.022;6.764;2023-05-10T01:46:07;13.20;99.90
2435;DHT22;1228;51.022;6.764;2023-05-10T01:48:48;13.20;99.90
2435;DHT22;1228;51.022;6.764;2023-05-10T01:53:46;13.20;99.90
2435;DHT22;1228;51.022;6.764;2023-05-10T01:56:13;13.20;99.90
2435;DHT22;1228;51.022;6.764;2023-05-10T01:58:40;13.20;99.90
2435;DHT22;1228;51.022;6.764;2023-05-10T02:01:10;13.20;99.90
2435;DHT22;1228;51.022;6.764;2023-05-10T02:03:38;13.30;99.90
2435;DHT22;1228;51.022;6.764;2023-05-10T02:06:05;13.30;99.90
2435;DHT22;1228;51.022;6.764;2023-05-10T02:08:31;13.30;99.90
2435;DHT22;1228;51.022;6.764;2023-05-10T02:10:58;13.30;99.90
2435;DHT22;1228;51.022;6.764;2023-05-10T02:13:25;13.40;99.90
2435;DHT22;1228;51.022;6.764;2023-05-10T02:15:53;13.40;99.90
2435;DHT22;1228;51.022;6.764;2023-05-10T02:18:20;13.40;99.90
2435;DHT22;1228;51.022;6.764;2023-05-10T02:20:47;13.40;99.90
2435;DHT22;1228;51.022;6.764;2023-05-10T02:23:14;13.30;99.90
2435;DHT22;1228;51.022;6.764;2023-05-10T02:25:41;13.30;99.90
2435;DHT22;1228;51.022;6.764;2023-05-10T02:28:10;13.30;99.90
2435;DHT22;1228;51.022;6.764;2023-05-10T02:30:37;13.30;99.90
2435;DHT22;1228;51.022;6.764;2023-05-10T02:33:04;13.30;99.90
2435;DHT22;1228;51.022;6.764;2023-05-10T02:35:31;13.30;99.90
2435;DHT22;1228;51.022;6.764;2023-05-10T02:37:59;13.20;99.90
2435;DHT22;1228;51.022;6.764;2023-05-10T02:40:26;13.20;99.90
2435;DHT22;1228;51.022;6.764;2023-05-10T02:42:55;13.20;99.90
2435;DHT22;1228;51.022;6.764;2023-05-10T02:45:24;13.30;99.90
2435;DHT22;1228;51.022;6.764;2023-05-10T02:47:52;13.30;99.90
2435;DHT22;1228;51.022;6.764;2023-05-10T02:50:18;13.30;99.90
2435;DHT22;1228;51.022;6.764;2023-05-10T02:52:50;13.40;99.90
2435;DHT22;1228;51.022;6.764;2023-05-10T02:55:22;13.40;99.90
2435;DHT22;1228;51.022;6.764;2023-05-10T02:58:08;13.40;99.90
2435;DHT22;1228;51.022;6.764;2023-05-10T03:00:34;13.40;99.90
2435;DHT22;1228;51.022;6.764;2023-05-10T03:03:01;13.50;99.90
2435;DHT22;1228;51.022;6.764;2023-05-10T03:05:27;13.50;99.90
2435;DHT22;1228;51.022;6.764;2023-05-10T03:07:53;13.50;99.90
2435;DHT22;1228;51.022;6.764;2023-05-10T03:10:21;13.60;99.90
2435;DHT22;1228;51.022;6.764;2023-05-10T03:12:56;13.50;99.90
2435;DHT22;1228;51.022;6.764;2023-05-10T03:18:20;13.50;99.90
2435;DHT22;1228;51.022;6.764;2023-05-10T03:20:52;13.50;99.90
2435;DHT22;1228;51.022;6.764;2023-05-10T03:23:27;13.50;99.90
2435;DHT22;1228;51.022;6.764;2023-05-10T03:25:53;13.50;99.90
2435;DHT22;1228;51.022;6.764;2023-05-10T03:28:20;13.60;99.90
2435;DHT22;1228;51.022;6.764;2023-05-10T03:30:47;13.60;99.90
2435;DHT22;1228;51.022;6.764;2023-05-10T03:33:12;13.60;99.90
2435;DHT22;1228;51.022;6.764;2023-05-10T03:35:39;13.60;99.90
2435;DHT22;1228;51.022;6.764;2023-05-10T03:38:04;13.50;99.90
2435;DHT22;1228;51.022;6.764;2023-05-10T03:40:30;13.50;99.90
2435;DHT22;1228;51.022;6.764;2023-05-10T03:42:58;13.50;99.90
2435;DHT22;1228;51.022;6.764;2023-05-10T03:45:23;13.50;99.90
2435;DHT22;1228;51.022;6.764;2023-05-10T03:47:49;13.50;99.90
2435;DHT22;1228;51.022;6.764;2023-05-10T03:50:15;13.50;99.90
2435;DHT22;1228;51.022;6.764;2023-05-10T03:52:40;13.60;99.90
2435;DHT22;1228;51.022;6.764;2023-05-10T03:55:06;13.50;99.90
2435;DHT22;1228;51.022;6.764;2023-05-10T03:57:33;13.50;99.90
2435;DHT22;1228;51.022;6.764;2023-05-10T03:59:59;13.60;99.90
2435;DHT22;1228;51.022;6.764;2023-05-10T04:02:25;13.60;99.90
2435;DHT22;1228;51.022;6.764;2023-05-10T04:04:51;13.60;99.90
2435;DHT22;1228;51.022;6.764;2023-05-10T04:07:16;13.60;99.90
2435;DHT22;1228;51.022;6.764;2023-05-10T04:09:42;13.50;99.90
2435;DHT22;1228;51.022;6.764;2023-05-10T04:12:08;13.50;99.90
2435;DHT22;1228;51.022;6.764;2023-05-10T04:14:33;13.40;99.90
2435;DHT22;1228;51.022;6.764;2023-05-10T04:16:59;13.40;99.90
2435;DHT22;1228;51.022;6.764;2023-05-10T04:19:29;13.30;99.90
2435;DHT22;1228;51.022;6.764;2023-05-10T04:21:55;13.30;99.90
2435;DHT22;1228;51.022;6.764;2023-05-10T04:24:20;13.30;99.90
2435;DHT22;1228;51.022;6.764;2023-05-10T04:26:46;13.30;99.90
2435;DHT22;1228;51.022;6.764;2023-05-10T04:29:11;13.30;99.90
2435;DHT22;1228;51.022;6.764;2023-05-10T04:31:37;13.30;99.90
2435;DHT22;1228;51.022;6.764;2023-05-10T04:34:03;13.30;99.90
2435;DHT22;1228;51.022;6.764;2023-05-10T04:36:29;13.30;99.90
2435;DHT22;1228;51.022;6.764;2023-05-10T04:38:54;13.20;99.90
2435;DHT22;1228;51.022;6.764;2023-05-10T04:41:20;13.20;99.90
2435;DHT22;1228;51.022;6.764;2023-05-10T04:43:46;13.20;99.90
2435;DHT22;1228;51.022;6.764;2023-05-10T04:46:12;13.30;99.90
2435;DHT22;1228;51.022;6.764;2023-05-10T04:48:37;13.30;99.90
2435;DHT22;1228;51.022;6.764;2023-05-10T04:51:03;13.30;99.90
2435;DHT22;1228;51.022;6.764;2023-05-10T04:53:29;13.30;99.90
2435;DHT22;1228;51.022;6.764;2023-05-10T04:55:55;13.40;99.90
2435;DHT22;1228;51.022;6.764;2023-05-10T04:58:20;13.50;99.90
2435;DHT22;1228;51.022;6.764;2023-05-10T05:00:46;13.50;99.90
2435;DHT22;1228;51.022;6.764;2023-05-10T05:03:12;13.50;99.90
2435;DHT22;1228;51.022;6.764;2023-05-10T05:05:37;13.50;99.90
2435;DHT22;1228;51.022;6.764;2023-05-10T05:08:03;13.50;99.90
2435;DHT22;1228;51.022;6.764;2023-05-10T05:10:29;13.50;99.90
2435;DHT22;1228;51.022;6.764;2023-05-10T05:12:55;13.50;99.90
2435;DHT22;1228;51.022;6.764;2023-05-10T05:15:20;13.40;99.90
2435;DHT22;1228;51.022;6.764;2023-05-10T05:17:46;13.40;99.90
2435;DHT22;1228;51.022;6.764;2023-05-10T05:20:12;13.40;99.90
2435;DHT22;1228;51.022;6.764;2023-05-10T05:22:38;13.40;99.90
2435;DHT22;1228;51.022;6.764;2023-05-10T05:25:04;13.40;99.90
2435;DHT22;1228;51.022;6.764;2023-05-10T05:27:30;13.40;99.90
2435;DHT22;1228;51.022;6.764;2023-05-10T05:29:56;13.40;99.90
2435;DHT22;1228;51.022;6.764;2023-05-10T05:32:23;13.40;99.90
2435;DHT22;1228;51.022;6.764;2023-05-10T05:34:49;13.40;99.90
2435;DHT22;1228;51.022;6.764;2023-05-10T05:37:15;13.40;99.90
2435;DHT22;1228;51.022;6.764;2023-05-10T05:39:42;13.50;99.90
2435;DHT22;1228;51.022;6.764;2023-05-10T05:42:11;13.50;99.90
2435;DHT22;1228;51.022;6.764;2023-05-10T05:44:37;13.50;99.90
2435;DHT22;1228;51.022;6.764;2023-05-10T05:47:03;13.50;99.90
2435;DHT22;1228;51.022;6.764;2023-05-10T05:49:29;13.50;99.90
2435;DHT22;1228;51.022;6.764;2023-05-10T05:51:58;13.50;99.90
2435;DHT22;1228;51.022;6.764;2023-05-10T05:54:24;13.50;99.90
2435;DHT22;1228;51.022;6.764;2023-05-10T05:56:50;13.50;99.90
2435;DHT22;1228;51.022;6.764;2023-05-10T05:59:15;13.60;99.90
2435;DHT22;1228;51.022;6.764;2023-05-10T06:01:41;13.60;99.90
2435;DHT22;1228;51.022;6.764;2023-05-10T06:04:06;13.70;99.90
2435;DHT22;1228;51.022;6.764;2023-05-10T06:06:32;13.70;99.90
2435;DHT22;1228;51.022;6.764;2023-05-10T06:08:58;13.70;99.90
2435;DHT22;1228;51.022;6.764;2023-05-10T06:11:24;13.70;99.90
2435;DHT22;1228;51.022;6.764;2023-05-10T06:13:50;13.70;99.90
2435;DHT22;1228;51.022;6.764;2023-05-10T06:16:16;13.80;99.90
2435;DHT22;1228;51.022;6.764;2023-05-10T06:18:43;13.70;99.90
2435;DHT22;1228;51.022;6.764;2023-05-10T06:21:08;13.60;99.90
2435;DHT22;1228;51.022;6.764;2023-05-10T06:23:34;13.50;99.90
2435;DHT22;1228;51.022;6.764;2023-05-10T06:26:01;13.40;99.90
2435;DHT22;1228;51.022;6.764;2023-05-10T06:28:26;13.50;99.90
2435;DHT22;1228;51.022;6.764;2023-05-10T06:30:52;13.40;99.90
2435;DHT22;1228;51.022;6.764;2023-05-10T06:33:17;13.40;99.90
2435;DHT22;1228;51.022;6.764;2023-05-10T06:35:43;13.40;99.90
2435;DHT22;1228;51.022;6.764;2023-05-10T06:38:09;13.50;99.90
2435;DHT22;1228;51.022;6.764;2023-05-10T06:40:34;13.50;99.90
2435;DHT22;1228;51.022;6.764;2023-05-10T06:43:01;13.60;99.90
2435;DHT22;1228;51.022;6.764;2023-05-10T06:45:26;13.60;99.90
2435;DHT22;1228;51.022;6.764;2023-05-10T06:47:52;13.60;99.90
2435;DHT22;1228;51.022;6.764;2023-05-10T06:50:18;13.70;99.90
2435;DHT22;1228;51.022;6.764;2023-05-10T06:52:43;13.70;99.90
2435;DHT22;1228;51.022;6.764;2023-05-10T06:55:10;13.70;99.90
2435;DHT22;1228;51.022;6.764;2023-05-10T06:57:36;13.70;99.90
2435;DHT22;1228;51.022;6.764;2023-05-10T07:00:02;13.70;99.90
2435;DHT22;1228;51.022;6.764;2023-05-10T07:02:29;13.80;99.90
2435;DHT22;1228;51.022;6.764;2023-05-10T07:04:55;13.80;99.90
2435;DHT22;1228;51.022;6.764;2023-05-10T07:07:20;14.00;99.90
2435;DHT22;1228;51.022;6.764;2023-05-10T07:09:46;14.00;99.90
2435;DHT22;1228;51.022;6.764;2023-05-10T07:12:12;14.10;99.90
2435;DHT22;1228;51.022;6.764;2023-05-10T07:14:38;14.20;99.90
2435;DHT22;1228;51.022;6.764;2023-05-10T07:17:03;14.20;99.90
2435;DHT22;1228;51.022;6.764;2023-05-10T07:19:30;14.30;99.90
2435;DHT22;1228;51.022;6.764;2023-05-10T07:21:58;14.30;99.90
2435;DHT22;1228;51.022;6.764;2023-05-10T07:24:23;14.30;99.90
2435;DHT22;1228;51.022;6.764;2023-05-10T07:26:49;14.40;99.90
2435;DHT22;1228;51.022;6.764;2023-05-10T07:29:15;14.60;99.90
2435;DHT22;1228;51.022;6.764;2023-05-10T07:31:40;14.70;99.90
2435;DHT22;1228;51.022;6.764;2023-05-10T07:34:08;14.80;99.90
2435;DHT22;1228;51.022;6.764;2023-05-10T07:36:34;14.80;99.90
2435;DHT22;1228;51.022;6.764;2023-05-10T07:39:00;14.80;99.90
2435;DHT22;1228;51.022;6.764;2023-05-10T07:41:25;14.90;99.90
2435;DHT22;1228;51.022;6.764;2023-05-10T07:43:51;14.80;99.90
2435;DHT22;1228;51.022;6.764;2023-05-10T07:46:17;14.80;99.90
2435;DHT22;1228;51.022;6.764;2023-05-10T07:48:44;14.90;99.90
2435;DHT22;1228;51.022;6.764;2023-05-10T07:51:10;15.00;99.90
2435;DHT22;1228;51.022;6.764;2023-05-10T07:53:36;15.00;99.90
2435;DHT22;1228;51.022;6.764;2023-05-10T07:56:23;15.00;99.90
2435;DHT22;1228;51.022;6.764;2023-05-10T07:58:50;15.00;99.90
2435;DHT22;1228;51.022;6.764;2023-05-10T08:01:16;15.10;99.90
2435;DHT22;1228;51.022;6.764;2023-05-10T08:03:41;15.20;99.90
2435;DHT22;1228;51.022;6.764;2023-05-10T08:06:07;15.20;99.90
2435;DHT22;1228;51.022;6.764;2023-05-10T08:08:33;15.20;99.90
2435;DHT22;1228;51.022;6.764;2023-05-10T08:10:58;15.00;99.90
2435;DHT22;1228;51.022;6.764;2023-05-10T08:13:24;15.00;99.90
2435;DHT22;1228;51.022;6.764;2023-05-10T08:15:49;14.90;99.90
2435;DHT22;1228;51.022;6.764;2023-05-10T08:18:18;15.10;99.90
2435;DHT22;1228;51.022;6.764;2023-05-10T08:20:44;15.20;99.90
2435;DHT22;1228;51.022;6.764;2023-05-10T08:23:10;15.30;99.90
2435;DHT22;1228;51.022;6.764;2023-05-10T08:25:35;15.30;99.90
2435;DHT22;1228;51.022;6.764;2023-05-10T08:28:01;15.30;99.90
2435;DHT22;1228;51.022;6.764;2023-05-10T08:30:26;15.20;99.90
2435;DHT22;1228;51.022;6.764;2023-05-10T08:32:52;15.10;99.90
2435;DHT22;1228;51.022;6.764;2023-05-10T08:35:17;15.10;99.90
2435;DHT22;1228;51.022;6.764;2023-05-10T08:37:43;15.00;99.90
2435;DHT22;1228;51.022;6.764;2023-05-10T08:40:11;15.10;99.90
2435;DHT22;1228;51.022;6.764;2023-05-10T08:42:40;15.20;99.90
2435;DHT22;1228;51.022;6.764;2023-05-10T08:45:07;15.40;99.90
2435;DHT22;1228;51.022;6.764;2023-05-10T08:47:36;15.40;99.90
2435;DHT22;1228;51.022;6.764;2023-05-10T08:50:03;15.50;99.90
2435;DHT22;1228;51.022;6.764;2023-05-10T08:52:30;15.50;99.90
2435;DHT22;1228;51.022;6.764;2023-05-10T08:54:56;15.50;99.90
2435;DHT22;1228;51.022;6.764;2023-05-10T08:57:22;15.50;99.90
2435;DHT22;1228;51.022;6.764;2023-05-10T08:59:47;15.30;99.90
2435;DHT22;1228;51.022;6.764;2023-05-10T09:02:13;15.20;99.90
2435;DHT22;1228;51.022;6.764;2023-05-10T09:04:39;15.10;99.90
2435;DHT22;1228;51.022;6.764;2023-05-10T09:07:06;15.10;99.90
2435;DHT22;1228;51.022;6.764;2023-05-10T09:09:33;15.20;99.90
2435;DHT22;1228;51.022;6.764;2023-05-10T09:11:59;15.10;99.90
2435;DHT22;1228;51.022;6.764;2023-05-10T09:14:25;15.10;99.90
2435;DHT22;1228;51.022;6.764;2023-05-10T09:16:51;15.00;99.90
2435;DHT22;1228;51.022;6.764;2023-05-10T09:19:17;14.90;99.90
2435;DHT22;1228;51.022;6.764;2023-05-10T09:21:43;14.90;99.90
2435;DHT22;1228;51.022;6.764;2023-05-10T09:24:09;15.00;99.90
2435;DHT22;1228;51.022;6.764;2023-05-10T09:26:35;15.20;99.90
2435;DHT22;1228;51.022;6.764;2023-05-10T09:29:02;15.40;99.90
2435;DHT22;1228;51.022;6.764;2023-05-10T09:31:50;15.50;99.90
2435;DHT22;1228;51.022;6.764;2023-05-10T09:34:32;15.60;99.90
2435;DHT22;1228;51.022;6.764;2023-05-10T09:37:02;15.80;99.90
2435;DHT22;1228;51.022;6.764;2023-05-10T09:39:35;15.90;99.90
2435;DHT22;1228;51.022;6.764;2023-05-10T09:42:10;16.10;99.90
2435;DHT22;1228;51.022;6.764;2023-05-10T09:44:36;16.40;99.90
2435;DHT22;1228;51.022;6.764;2023-05-10T09:47:02;16.50;99.90
2435;DHT22;1228;51.022;6.764;2023-05-10T09:49:28;16.60;99.90
2435;DHT22;1228;51.022;6.764;2023-05-10T09:52:00;16.80;99.90
2435;DHT22;1228;51.022;6.764;2023-05-10T09:54:26;17.00;99.90
2435;DHT22;1228;51.022;6.764;2023-05-10T09:56:52;17.10;99.90
2435;DHT22;1228;51.022;6.764;2023-05-10T09:59:18;17.10;99.90
2435;DHT22;1228;51.022;6.764;2023-05-10T10:01:50;17.10;99.90
2435;DHT22;1228;51.022;6.764;2023-05-10T10:04:16;17.30;99.90
2435;DHT22;1228;51.022;6.764;2023-05-10T10:06:42;17.30;99.90
2435;DHT22;1228;51.022;6.764;2023-05-10T10:09:08;17.20;99.90
2435;DHT22;1228;51.022;6.764;2023-05-10T10:11:35;17.20;99.90
2435;DHT22;1228;51.022;6.764;2023-05-10T10:14:01;17.20;99.90
2435;DHT22;1228;51.022;6.764;2023-05-10T10:16:29;17.20;99.90
2435;DHT22;1228;51.022;6.764;2023-05-10T10:18:56;17.30;99.90
2435;DHT22;1228;51.022;6.764;2023-05-10T10:21:22;17.30;99.90
2435;DHT22;1228;51.022;6.764;2023-05-10T10:23:48;17.30;99.90
2435;DHT22;1228;51.022;6.764;2023-05-10T10:26:15;17.30;99.90
2435;DHT22;1228;51.022;6.764;2023-05-10T10:34:06;18.40;99.90
2435;DHT22;1228;51.022;6.764;2023-05-10T10:36:46;18.80;99.90
2435;DHT22;1228;51.022;6.764;2023-05-10T10:39:13;19.10;99.90
2435;DHT22;1228;51.022;6.764;2023-05-10T10:41:48;19.30;99.90
2435;DHT22;1228;51.022;6.764;2023-05-10T10:44:24;19.50;99.90
2435;DHT22;1228;51.022;6.764;2023-05-10T10:49:52;19.40;99.90
2435;DHT22;1228;51.022;6.764;2023-05-10T10:52:37;19.30;99.90
2435;DHT22;1228;51.022;6.764;2023-05-10T10:57:55;18.60;99.90
2435;DHT22;1228;51.022;6.764;2023-05-10T11:03:04;18.40;99.90
2435;DHT22;1228;51.022;6.764;2023-05-10T11:08:08;18.30;99.90
2435;DHT22;1228;51.022;6.764;2023-05-10T11:10:34;18.20;99.90
2435;DHT22;1228;51.022;6.764;2023-05-10T11:15:34;18.20;99.90
2435;DHT22;1228;51.022;6.764;2023-05-10T11:18:02;18.20;99.90
2435;DHT22;1228;51.022;6.764;2023-05-10T11:20:41;18.10;99.90
2435;DHT22;1228;51.022;6.764;2023-05-10T11:23:14;18.20;99.90
2435;DHT22;1228;51.022;6.764;2023-05-10T11:25:42;18.30;99.90
2435;DHT22;1228;51.022;6.764;2023-05-10T11:28:12;18.40;99.90
2435;DHT22;1228;51.022;6.764;2023-05-10T11:30:39;18.50;99.90
2435;DHT22;1228;51.022;6.764;2023-05-10T11:33:06;18.40;99.90
2435;DHT22;1228;51.022;6.764;2023-05-10T11:35:41;18.60;99.90
2435;DHT22;1228;51.022;6.764;2023-05-10T11:38:08;18.90;99.90
2435;DHT22;1228;51.022;6.764;2023-05-10T11:40:34;19.00;99.90
2435;DHT22;1228;51.022;6.764;2023-05-10T11:43:00;19.00;99.90
2435;DHT22;1228;51.022;6.764;2023-05-10T11:45:26;19.10;99.90
2435;DHT22;1228;51.022;6.764;2023-05-10T11:47:53;19.40;99.90
2435;DHT22;1228;51.022;6.764;2023-05-10T11:50:19;19.70;99.90
2435;DHT22;1228;51.022;6.764;2023-05-10T11:52:44;20.20;99.90
2435;DHT22;1228;51.022;6.764;2023-05-10T11:55:10;20.90;99.90
2435;DHT22;1228;51.022;6.764;2023-05-10T11:57:35;21.30;99.90
2435;DHT22;1228;51.022;6.764;2023-05-10T12:00:04;21.50;99.90
2435;DHT22;1228;51.022;6.764;2023-05-10T12:02:30;21.80;99.90
2435;DHT22;1228;51.022;6.764;2023-05-10T12:04:56;21.90;99.90
2435;DHT22;1228;51.022;6.764;2023-05-10T12:07:22;22.10;99.90
2435;DHT22;1228;51.022;6.764;2023-05-10T12:10:10;22.20;99.90
2435;DHT22;1228;51.022;6.764;2023-05-10T12:12:44;22.90;99.90
2435;DHT22;1228;51.022;6.764;2023-05-10T12:17:45;24.10;99.90
2435;DHT22;1228;51.022;6.764;2023-05-10T12:20:19;24.00;99.90
2435;DHT22;1228;51.022;6.764;2023-05-10T12:22:50;24.10;99.90
2435;DHT22;1228;51.022;6.764;2023-05-10T12:25:17;23.70;99.90
2435;DHT22;1228;51.022;6.764;2023-05-10T12:27:53;22.80;99.90
2435;DHT22;1228;51.022;6.764;2023-05-10T12:30:27;22.30;99.90
2435;DHT22;1228;51.022;6.764;2023-05-10T12:32:54;21.90;99.90
2435;DHT22;1228;51.022;6.764;2023-05-10T12:35:24;21.40;99.90
2435;DHT22;1228;51.022;6.764;2023-05-10T12:37:53;21.40;99.90
2435;DHT22;1228;51.022;6.764;2023-05-10T12:40:18;21.70;99.90
2435;DHT22;1228;51.022;6.764;2023-05-10T12:42:44;22.10;99.90
2435;DHT22;1228;51.022;6.764;2023-05-10T12:45:13;22.20;99.90
2435;DHT22;1228;51.022;6.764;2023-05-10T12:47:40;22.00;99.90
2435;DHT22;1228;51.022;6.764;2023-05-10T12:50:06;21.80;99.90
2435;DHT22;1228;51.022;6.764;2023-05-10T12:52:32;21.20;99.90
2435;DHT22;1228;51.022;6.764;2023-05-10T12:54:58;20.80;99.90
2435;DHT22;1228;51.022;6.764;2023-05-10T12:57:24;20.50;99.90
2435;DHT22;1228;51.022;6.764;2023-05-10T12:59:50;20.30;99.90
2435;DHT22;1228;51.022;6.764;2023-05-10T13:02:16;20.30;99.90
2435;DHT22;1228;51.022;6.764;2023-05-10T13:04:44;20.00;99.90
2435;DHT22;1228;51.022;6.764;2023-05-10T13:07:10;19.90;99.90
2435;DHT22;1228;51.022;6.764;2023-05-10T13:09:35;20.00;99.90
2435;DHT22;1228;51.022;6.764;2023-05-10T13:12:01;20.00;99.90
2435;DHT22;1228;51.022;6.764;2023-05-10T13:14:27;20.10;99.90
2435;DHT22;1228;51.022;6.764;2023-05-10T13:16:52;20.30;99.90
2435;DHT22;1228;51.022;6.764;2023-05-10T13:19:19;20.40;99.90
2435;DHT22;1228;51.022;6.764;2023-05-10T13:21:44;20.70;99.90
2435;DHT22;1228;51.022;6.764;2023-05-10T13:24:10;20.80;99.90
2435;DHT22;1228;51.022;6.764;2023-05-10T13:26:41;20.70;99.90
2435;DHT22;1228;51.022;6.764;2023-05-10T13:29:07;20.60;99.90
2435;DHT22;1228;51.022;6.764;2023-05-10T13:31:33;20.50;99.90
2435;DHT22;1228;51.022;6.764;2023-05-10T13:33:59;20.60;99.90
2435;DHT22;1228;51.022;6.764;2023-05-10T13:36:25;20.70;99.90
2435;DHT22;1228;51.022;6.764;2023-05-10T13:38:50;20.60;99.90
2435;DHT22;1228;51.022;6.764;2023-05-10T13:41:16;20.80;99.90
2435;DHT22;1228;51.022;6.764;2023-05-10T13:43:41;20.60;99.90
2435;DHT22;1228;51.022;6.764;2023-05-10T13:46:07;20.70;99.90
2435;DHT22;1228;51.022;6.764;2023-05-10T13:48:33;20.80;99.90
2435;DHT22;1228;51.022;6.764;2023-05-10T13:50:58;21.00;99.90
2435;DHT22;1228;51.022;6.764;2023-05-10T13:55:52;21.20;99.90
2435;DHT22;1228;51.022;6.764;2023-05-10T13:58:17;20.90;99.90
2435;DHT22;1228;51.022;6.764;2023-05-10T14:00:43;20.80;99.90
2435;DHT22;1228;51.022;6.764;2023-05-10T14:03:08;20.70;99.90
2435;DHT22;1228;51.022;6.764;2023-05-10T14:05:36;20.60;99.90
2435;DHT22;1228;51.022;6.764;2023-05-10T14:08:01;20.60;99.90
2435;DHT22;1228;51.022;6.764;2023-05-10T14:10:29;20.50;99.90
2435;DHT22;1228;51.022;6.764;2023-05-10T14:12:57;20.40;99.90
2435;DHT22;1228;51.022;6.764;2023-05-10T14:15:22;20.40;99.90
2435;DHT22;1228;51.022;6.764;2023-05-10T14:17:48;20.20;99.90
2435;DHT22;1228;51.022;6.764;2023-05-10T14:20:14;20.00;99.90
2435;DHT22;1228;51.022;6.764;2023-05-10T14:22:39;19.90;99.90
2435;DHT22;1228;51.022;6.764;2023-05-10T14:25:06;19.90;99.90
2435;DHT22;1228;51.022;6.764;2023-05-10T14:27:32;19.90;99.90
2435;DHT22;1228;51.022;6.764;2023-05-10T14:29:57;20.10;99.90
2435;DHT22;1228;51.022;6.764;2023-05-10T14:32:23;20.10;99.90
2435;DHT22;1228;51.022;6.764;2023-05-10T14:34:49;20.10;99.90
2435;DHT22;1228;51.022;6.764;2023-05-10T14:37:16;20.30;99.90
2435;DHT22;1228;51.022;6.764;2023-05-10T14:39:41;20.50;99.90
2435;DHT22;1228;51.022;6.764;2023-05-10T14:42:08;20.60;99.90
2435;DHT22;1228;51.022;6.764;2023-05-10T14:44:34;20.40;99.90
2435;DHT22;1228;51.022;6.764;2023-05-10T14:46:59;20.10;99.90
2435;DHT22;1228;51.022;6.764;2023-05-10T14:49:26;19.80;99.90
2435;DHT22;1228;51.022;6.764;2023-05-10T14:51:51;19.60;99.90
2435;DHT22;1228;51.022;6.764;2023-05-10T14:54:20;19.30;99.90
2435;DHT22;1228;51.022;6.764;2023-05-10T14:56:46;19.10;99.90
2435;DHT22;1228;51.022;6.764;2023-05-10T14:59:14;19.00;99.90
2435;DHT22;1228;51.022;6.764;2023-05-10T15:01:39;19.00;99.90
2435;DHT22;1228;51.022;6.764;2023-05-10T15:04:07;18.80;99.90
2435;DHT22;1228;51.022;6.764;2023-05-10T15:06:34;18.90;99.90
2435;DHT22;1228;51.022;6.764;2023-05-10T15:09:01;18.80;99.90
2435;DHT22;1228;51.022;6.764;2023-05-10T15:11:28;18.90;99.90
2435;DHT22;1228;51.022;6.764;2023-05-10T15:13:54;19.10;99.90
2435;DHT22;1228;51.022;6.764;2023-05-10T15:16:20;19.00;99.90
2435;DHT22;1228;51.022;6.764;2023-05-10T15:18:46;19.00;99.90
2435;DHT22;1228;51.022;6.764;2023-05-10T15:21:11;19.00;99.90
2435;DHT22;1228;51.022;6.764;2023-05-10T15:23:37;18.90;99.90
2435;DHT22;1228;51.022;6.764;2023-05-10T15:26:03;18.70;99.90
2435;DHT22;1228;51.022;6.764;2023-05-10T15:28:28;18.70;99.90
2435;DHT22;1228;51.022;6.764;2023-05-10T15:30:55;18.60;99.90
2435;DHT22;1228;51.022;6.764;2023-05-10T15:33:20;18.50;99.90
2435;DHT22;1228;51.022;6.764;2023-05-10T15:35:46;18.60;99.90
2435;DHT22;1228;51.022;6.764;2023-05-10T15:38:11;18.60;99.90
2435;DHT22;1228;51.022;6.764;2023-05-10T15:40:37;18.60;99.90
2435;DHT22;1228;51.022;6.764;2023-05-10T15:43:03;18.50;99.90
2435;DHT22;1228;51.022;6.764;2023-05-10T15:45:30;18.50;99.90
2435;DHT22;1228;51.022;6.764;2023-05-10T15:47:57;18.50;99.90
2435;DHT22;1228;51.022;6.764;2023-05-10T15:50:24;18.50;99.90
2435;DHT22;1228;51.022;6.764;2023-05-10T15:52:50;18.30;99.90
2435;DHT22;1228;51.022;6.764;2023-05-10T15:55:16;18.20;99.90
2435;DHT22;1228;51.022;6.764;2023-05-10T15:57:42;18.10;99.90
2435;DHT22;1228;51.022;6.764;2023-05-10T16:00:09;18.20;99.90
2435;DHT22;1228;51.022;6.764;2023-05-10T16:02:35;18.30;99.90
2435;DHT22;1228;51.022;6.764;2023-05-10T16:05:02;18.30;99.90
2435;DHT22;1228;51.022;6.764;2023-05-10T16:07:27;18.40;99.90
2435;DHT22;1228;51.022;6.764;2023-05-10T16:09:53;18.40;99.90
2435;DHT22;1228;51.022;6.764;2023-05-10T16:12:19;18.60;99.90
2435;DHT22;1228;51.022;6.764;2023-05-10T16:14:45;18.70;99.90
2435;DHT22;1228;51.022;6.764;2023-05-10T16:17:10;18.90;99.90
2435;DHT22;1228;51.022;6.764;2023-05-10T16:19:36;18.90;99.90
2435;DHT22;1228;51.022;6.764;2023-05-10T16:22:02;18.90;99.90
2435;DHT22;1228;51.022;6.764;2023-05-10T16:24:27;18.70;99.90
2435;DHT22;1228;51.022;6.764;2023-05-10T16:26:53;18.70;99.90
2435;DHT22;1228;51.022;6.764;2023-05-10T16:29:19;18.70;99.90
2435;DHT22;1228;51.022;6.764;2023-05-10T16:31:44;18.60;99.90
2435;DHT22;1228;51.022;6.764;2023-05-10T16:34:10;18.40;99.90
2435;DHT22;1228;51.022;6.764;2023-05-10T16:36:36;18.10;99.90
2435;DHT22;1228;51.022;6.764;2023-05-10T16:39:01;18.00;99.90
2435;DHT22;1228;51.022;6.764;2023-05-10T16:41:31;18.00;99.90
2435;DHT22;1228;51.022;6.764;2023-05-10T16:43:57;17.90;99.90